This is the latest recevied weather packets stored in our database for station/object KD4KKF. If no packets are shown the sender has not sent any weather packets the latest 10 day(s).
| Time | Temp. | Humidity | Pressure | Rain* | Wind** | Luminosity | Snow |
|---|---|---|---|---|---|---|---|
| 1777926502 | 26.11° C | 44% | 1012.3 hPa | 0 mm | - | 710 W/m² | - |
| 1777926200 | 26.67° C | 43% | 1012.6 hPa | 0 mm | - | 716 W/m² | - |
| 1777925896 | 26.11° C | 45% | 1012.6 hPa | 0 mm | - | 704 W/m² | - |
| 1777925594 | 25.56° C | 46% | 1012.8 hPa | 0 mm | - | 728 W/m² | - |
| 1777925291 | 25° C | 47% | 1012.8 hPa | 0 mm | - | 220 W/m² | - |
| 1777924987 | 25.56° C | 47% | 1012.9 hPa | 0 mm | - | 608 W/m² | - |
| 1777924683 | 26.67° C | 45% | 1013 hPa | 0 mm | - | 762 W/m² | - |
| 1777924379 | 26.11° C | 44% | 1012.7 hPa | 0 mm | - | 761 W/m² | - |
| 1777924076 | 26.11° C | 43% | 1012.8 hPa | 0 mm | - | 744 W/m² | - |
| 1777923773 | 26.11° C | 45% | 1012.8 hPa | 0 mm | - | 747 W/m² | - |
| 1777923469 | 26.67° C | 46% | 1013 hPa | 0 mm | - | 774 W/m² | - |
| 1777923166 | 25.56° C | 46% | 1013 hPa | 0 mm | - | 747 W/m² | - |
| 1777922865 | 26.11° C | 45% | 1012.9 hPa | 0 mm | - | 742 W/m² | - |
| 1777922562 | 25.56° C | 46% | 1013.2 hPa | 0 mm | - | 724 W/m² | - |
| 1777922261 | 25.56° C | 47% | 1013.1 hPa | 0 mm | - | 724 W/m² | - |
| 1777921957 | 26.11° C | 46% | 1013.5 hPa | 0 mm | - | 766 W/m² | - |
| 1777921653 | 26.11° C | 46% | 1013.1 hPa | 0 mm | - | 775 W/m² | - |
| 1777921350 | 25.56° C | 48% | 1013.4 hPa | 0 mm | - | 787 W/m² | - |
| 1777921046 | 25.56° C | 48% | 1013.2 hPa | 0 mm | - | 584 W/m² | - |
| 1777920743 | 25.56° C | 46% | 1013.5 hPa | 0 mm | - | 796 W/m² | - |
| 1777920439 | 25.56° C | 47% | 1013.5 hPa | 0 mm | - | 811 W/m² | - |
| 1777920135 | 25.56° C | 46% | 1013.3 hPa | 0 mm | - | 798 W/m² | - |
| 1777919831 | 26.11° C | 45% | 1013.7 hPa | 0 mm | - | 252 W/m² | - |
| 1777919528 | 26.11° C | 44% | 1013.7 hPa | 0 mm | - | 806 W/m² | - |
| 1777919226 | 25.56° C | 48% | 1013.8 hPa | 0 mm | - | 825 W/m² | - |
* Rain latest hour (hover to see other rain measurements)
** Current wind speed in m/s (hover to see current wind gust speed)